Time;durP1;ratioP1;P1;durP2;ratioP2;P2;SDS_P1;SDS_P2;PMS_P1;PMS_P2;Temp;Humidity;BMP_temperature;BMP_pressure;BME280_temperature;BME280_humidity;BME280_pressure;Samples;Min_cycle;Max_cycle;Signal;HPM_P1;HPM_P2
2022/09/29 00:00:19;;;;;;;9.40;5.40;;;;;;;18.19;46.59;100025.88;5089866;28;20055;-75
2022/09/29 00:02:45;;;;;;;9.80;5.70;;;;;;;18.22;46.19;100020.44;5089693;28;20448;-76
2022/09/29 00:05:10;;;;;;;6.70;4.93;;;;;;;18.19;46.56;100028.53;5070600;28;20137;-76
2022/09/29 00:07:35;;;;;;;8.47;5.23;;;;;;;18.06;46.92;100021.25;5070021;28;20384;-76
2022/09/29 00:10:01;;;;;;;7.97;5.33;;;;;;;18.13;47.20;100025.28;5075750;28;20049;-76
2022/09/29 00:12:27;;;;;;;8.90;5.47;;;;;;;18.00;46.92;100021.59;5087519;28;20522;-76
2022/09/29 00:14:52;;;;;;;6.53;5.47;;;;;;;18.19;46.51;100020.59;5091388;28;20057;-76
2022/09/29 00:17:17;;;;;;;8.27;5.13;;;;;;;18.08;46.86;100027.31;5090932;28;20129;-75
2022/09/29 00:19:43;;;;;;;6.93;5.30;;;;;;;18.13;46.45;100022.66;5090856;28;20036;-75
2022/09/29 00:22:08;;;;;;;8.87;5.23;;;;;;;18.02;46.97;100025.00;5091320;28;20028;-76
2022/09/29 00:24:33;;;;;;;9.70;5.97;;;;;;;17.97;47.23;100029.69;5089291;28;20510;-76
2022/09/29 00:27:00;;;;;;;7.97;5.67;;;;;;;18.43;45.67;100019.22;5090906;28;20024;-76
2022/09/29 00:29:25;;;;;;;10.17;5.00;;;;;;;18.25;46.08;100025.56;5089364;28;20028;-76
2022/09/29 00:31:50;;;;;;;9.07;7.10;;;;;;;17.89;46.96;100023.94;5090318;28;20070;-76
2022/09/29 00:34:16;;;;;;;7.87;4.83;;;;;;;18.28;45.51;100026.22;5091424;28;20039;-76
2022/09/29 00:36:41;;;;;;;8.87;5.17;;;;;;;18.37;45.40;100019.59;5088960;28;20024;-76
2022/09/29 00:39:07;;;;;;;6.27;4.90;;;;;;;18.13;46.49;100027.94;5089692;28;20035;-76
2022/09/29 00:41:35;;;;;;;7.30;5.20;;;;;;;18.08;45.99;100029.97;5090423;28;20536;-76
2022/09/29 00:44:45;;;;;;;11.27;6.27;;;;;;;17.99;46.49;100025.16;5091962;28;20032;-76
2022/09/29 00:47:15;;;;;;;7.57;4.70;;;;;;;17.91;45.98;100022.06;5089747;28;20131;-76
2022/09/29 00:49:57;;;;;;;9.50;4.90;;;;;;;17.91;46.29;100022.06;5088915;28;20040;-75
2022/09/29 00:52:31;;;;;;;11.27;5.53;;;;;;;17.94;46.72;100030.72;5087822;28;20438;-76
2022/09/29 00:54:59;;;;;;;7.60;5.33;;;;;;;17.91;46.22;100016.75;5089538;28;20024;-76
2022/09/29 00:57:32;;;;;;;7.80;5.60;;;;;;;17.87;46.69;100031.09;5089062;28;20584;-75
2022/09/29 01:00:08;;;;;;;5.95;5.30;;;;;;;17.88;46.79;100032.81;5087196;28;20073;-76
2022/09/29 01:02:38;;;;;;;8.53;5.47;;;;;;;17.96;46.40;100028.00;5083826;28;20097;-76
2022/09/29 01:05:10;;;;;;;6.33;5.03;;;;;;;18.07;46.05;100022.97;5107322;28;20035;-76
2022/09/29 01:07:35;;;;;;;8.13;5.30;;;;;;;17.91;46.18;100017.63;5095299;28;20032;-76
2022/09/29 01:10:01;;;;;;;8.10;5.07;;;;;;;17.74;46.62;100025.59;5089639;28;20027;-76
2022/09/29 01:12:26;;;;;;;6.83;5.80;;;;;;;17.82;46.21;100012.84;5089373;28;20032;-76
2022/09/29 01:14:53;;;;;;;5.67;4.90;;;;;;;17.83;46.67;100018.97;5090491;28;20020;-76
2022/09/29 01:17:20;;;;;;;8.60;5.77;;;;;;;17.86;46.12;100010.88;5088395;28;20039;-76
2022/09/29 01:19:51;;;;;;;6.30;5.07;;;;;;;17.76;46.35;100019.31;5090054;28;20036;-76
2022/09/29 01:22:46;;;;;;;13.23;7.10;;;;;;;17.74;46.43;100021.16;5088111;28;20126;-76
2022/09/29 01:25:50;;;;;;;8.37;6.60;;;;;;;17.78;46.61;100012.13;5087665;28;20021;-76
2022/09/29 01:28:34;;;;;;;20.27;8.35;;;;;;;17.92;46.21;100023.81;5095483;27;20031;-76
2022/09/29 01:31:40;;;;;;;17.20;10.87;;;;;;;18.03;46.09;100021.44;5089395;28;20033;-76
2022/09/29 01:34:22;;;;;;;20.97;14.03;;;;;;;17.86;46.08;100018.78;5075233;28;20569;-75
2022/09/29 01:37:28;;;;;;;26.73;18.30;;;;;;;17.88;46.47;100022.22;5074603;28;20044;-76
2022/09/29 01:40:00;;;;;;;29.10;20.13;;;;;;;17.77;46.29;100010.41;5042479;28;20070;-76
2022/09/29 01:42:31;;;;;;;35.50;24.98;;;;;;;17.79;45.94;100016.50;5095776;28;20028;-76
2022/09/29 01:45:18;;;;;;;33.83;24.63;;;;;;;17.72;46.04;100019.53;5092961;28;20078;-76
2022/09/29 01:47:53;;;;;;;40.77;26.60;;;;;;;17.78;46.38;100014.78;5094596;28;20024;-76
2022/09/29 01:50:28;;;;;;;37.47;26.53;;;;;;;17.70;46.58;100019.63;5092583;28;20028;-76
2022/09/29 01:53:01;;;;;;;36.00;27.47;;;;;;;17.74;46.53;100018.50;5092822;28;20024;-76
2022/09/29 01:55:31;;;;;;;33.33;23.42;;;;;;;17.89;46.33;100019.50;5092970;28;20031;-76
2022/09/29 01:58:04;;;;;;;30.07;21.53;;;;;;;17.72;46.38;100023.03;5086737;28;20091;-76
2022/09/29 02:00:35;;;;;;;27.17;18.02;;;;;;;17.77;46.49;100026.28;5094021;28;20024;-76
2022/09/29 02:03:13;;;;;;;23.97;17.47;;;;;;;17.79;46.20;100024.41;5093784;28;20388;-76
2022/09/29 02:05:44;;;;;;;18.83;13.10;;;;;;;17.80;46.25;100023.50;5091726;28;20080;-76
2022/09/29 02:08:18;;;;;;;14.97;10.57;;;;;;;17.96;45.54;100020.06;5088501;28;20033;-76
2022/09/29 02:10:53;;;;;;;13.70;8.50;;;;;;;17.78;46.15;100024.50;5079789;28;20039;-76
2022/09/29 02:13:20;;;;;;;10.47;7.70;;;;;;;17.49;46.94;100015.44;5092606;28;20176;-76
2022/09/29 02:15:50;;;;;;;13.93;6.93;;;;;;;17.81;45.96;100013.75;5092187;28;20499;-76
2022/09/29 02:18:20;;;;;;;10.90;7.13;;;;;;;17.80;46.48;100015.56;5091854;28;20020;-76
2022/09/29 02:20:47;;;;;;;10.37;7.30;;;;;;;17.70;46.13;100014.31;5092032;28;20101;-76
2022/09/29 02:23:13;;;;;;;11.30;7.43;;;;;;;17.64;46.52;100009.38;5093363;28;20024;-76
2022/09/29 02:25:39;;;;;;;8.93;6.50;;;;;;;17.58;45.42;100010.53;5093602;28;20028;-76
2022/09/29 02:28:06;;;;;;;10.60;6.57;;;;;;;17.29;47.36;100014.69;5092228;28;20026;-76
2022/09/29 02:30:32;;;;;;;10.10;6.20;;;;;;;17.57;46.37;100018.53;5092161;28;20483;-76
2022/09/29 02:32:57;;;;;;;9.83;6.40;;;;;;;17.49;46.38;100016.31;5092247;28;20034;-76
2022/09/29 02:35:28;;;;;;;8.43;6.33;;;;;;;17.52;46.55;100010.03;5089906;28;20438;-76
2022/09/29 02:38:07;;;;;;;8.07;6.80;;;;;;;17.43;46.65;100014.84;5092581;28;20024;-76
2022/09/29 02:40:56;;;;;;;8.27;6.80;;;;;;;17.67;46.01;100014.50;5073380;28;20476;-76
2022/09/29 02:43:49;;;;;;;10.83;7.70;;;;;;;17.52;45.88;100012.66;5076243;28;20032;-76
2022/09/29 02:46:28;;;;;;;11.93;7.40;;;;;;;17.39;46.41;100015.94;5073564;28;20056;-76
2022/09/29 02:49:22;;;;;;;8.13;7.00;;;;;;;17.50;45.95;100010.06;5079586;28;20059;-76
2022/09/29 02:51:57;;;;;;;8.17;6.60;;;;;;;17.58;45.97;100020.25;5039362;28;20037;-76
2022/09/29 02:54:41;;;;;;;7.70;6.67;;;;;;;17.26;46.35;100014.84;5089396;28;20110;-76
2022/09/29 02:57:16;;;;;;;12.37;6.90;;;;;;;17.31;46.31;100007.56;5091443;28;20081;-76
2022/09/29 03:00:05;;;;;;;11.23;7.37;;;;;;;17.39;45.96;100009.78;5093543;28;20020;-76
2022/09/29 03:02:31;;;;;;;12.37;7.73;;;;;;;17.30;46.69;100026.97;5091127;28;20089;-76
2022/09/29 03:04:56;;;;;;;9.20;7.53;;;;;;;17.38;46.96;100022.16;5089702;28;20347;-76
2022/09/29 03:07:22;;;;;;;9.57;7.20;;;;;;;17.46;45.93;100022.59;5106026;27;20123;-76
2022/09/29 03:09:47;;;;;;;12.17;8.90;;;;;;;17.59;45.79;100027.25;5092296;28;20107;-76
2022/09/29 03:12:13;;;;;;;10.40;7.80;;;;;;;17.79;45.09;100024.41;5091632;28;20032;-76
2022/09/29 03:14:38;;;;;;;10.90;7.43;;;;;;;17.33;46.05;100021.53;5091058;28;20081;-76
2022/09/29 03:17:04;;;;;;;9.10;7.20;;;;;;;17.41;46.12;100027.25;5089389;28;20070;-76
2022/09/29 03:19:29;;;;;;;8.33;7.13;;;;;;;17.45;45.95;100020.88;5092957;28;20416;-76
2022/09/29 03:21:54;;;;;;;12.30;7.73;;;;;;;17.54;45.49;100024.00;5091047;28;20036;-75
2022/09/29 03:24:20;;;;;;;11.73;8.17;;;;;;;17.29;46.42;100034.03;5090857;28;20023;-76
2022/09/29 03:26:45;;;;;;;11.60;7.30;;;;;;;17.03;46.68;100030.03;5091128;28;20067;-76
2022/09/29 03:29:10;;;;;;;11.40;7.83;;;;;;;17.33;45.93;100037.38;5089826;28;20040;-75
2022/09/29 03:31:38;;;;;;;10.87;8.00;;;;;;;17.29;46.26;100036.66;5090926;28;20031;-76
2022/09/29 03:34:04;;;;;;;11.13;7.77;;;;;;;17.39;46.07;100031.78;5102574;28;20035;-76
2022/09/29 03:36:29;;;;;;;13.33;8.40;;;;;;;17.24;46.46;100035.19;5098467;28;20043;-76
2022/09/29 03:38:55;;;;;;;14.30;9.20;;;;;;;17.08;46.70;100035.97;5089852;28;20042;-76
2022/09/29 03:41:20;;;;;;;13.97;8.83;;;;;;;17.38;45.71;100035.34;5091223;28;20024;-76
2022/09/29 03:43:45;;;;;;;11.60;8.07;;;;;;;17.27;45.81;100038.53;5090212;28;20059;-76
2022/09/29 03:46:11;;;;;;;11.40;8.63;;;;;;;17.05;46.62;100037.88;5090204;28;20040;-76
2022/09/29 03:48:36;;;;;;;12.57;8.60;;;;;;;17.09;46.20;100042.97;5087659;28;20048;-76
2022/09/29 03:51:02;;;;;;;12.40;8.60;;;;;;;17.23;45.79;100046.69;5108224;28;20024;-76
2022/09/29 03:53:28;;;;;;;17.47;9.40;;;;;;;17.14;46.30;100042.72;5087773;28;20051;-76
2022/09/29 03:55:53;;;;;;;14.63;8.40;;;;;;;17.26;45.38;100049.19;5089125;28;20484;-76
2022/09/29 03:58:19;;;;;;;13.10;8.07;;;;;;;16.95;46.39;100042.78;5090694;28;20043;-76
2022/09/29 04:00:46;;;;;;;13.93;7.60;;;;;;;16.78;46.73;100047.06;5091931;28;20038;-76
2022/09/29 04:03:11;;;;;;;11.50;7.87;;;;;;;16.94;46.10;100043.72;5091154;28;20024;-76
2022/09/29 04:05:38;;;;;;;12.97;9.73;;;;;;;16.45;47.35;100055.66;5090796;28;20479;-76
2022/09/29 04:08:04;;;;;;;14.53;9.43;;;;;;;16.18;48.39;100051.66;5090399;28;20028;-76
2022/09/29 04:10:32;;;;;;;15.37;9.10;;;;;;;16.63;47.32;100043.38;5106169;28;20094;-76
2022/09/29 04:12:58;;;;;;;16.40;10.13;;;;;;;15.95;49.25;100050.94;5089334;28;20368;-75
2022/09/29 04:15:23;;;;;;;15.50;10.20;;;;;;;16.41;47.92;100054.06;5090302;28;20039;-76
2022/09/29 04:17:48;;;;;;;19.00;10.60;;;;;;;16.67;47.42;100049.38;5090084;28;20024;-76
2022/09/29 04:20:14;;;;;;;15.27;8.90;;;;;;;16.54;47.68;100042.94;5089378;28;20039;-75
2022/09/29 04:22:39;;;;;;;15.07;9.30;;;;;;;16.71;47.29;100045.66;5090611;28;20034;-76
2022/09/29 04:25:05;;;;;;;14.10;9.37;;;;;;;16.64;47.34;100049.50;5091963;28;20479;-76
2022/09/29 04:27:30;;;;;;;14.77;9.60;;;;;;;16.66;47.78;100052.91;5090704;28;20028;-76
2022/09/29 04:29:56;;;;;;;15.27;9.97;;;;;;;16.34;48.01;100059.72;5092095;28;20035;-76
2022/09/29 04:32:23;;;;;;;15.20;10.23;;;;;;;15.83;49.04;100062.00;5089247;28;20060;-76
2022/09/29 04:34:49;;;;;;;16.07;10.37;;;;;;;16.36;49.13;100066.66;5088938;28;20047;-76
2022/09/29 04:37:14;;;;;;;17.63;9.67;;;;;;;16.67;47.38;100059.06;5087042;28;20082;-77
2022/09/29 04:39:39;;;;;;;14.93;9.57;;;;;;;16.61;47.24;100060.22;5090046;28;20061;-76
2022/09/29 04:42:05;;;;;;;19.10;10.53;;;;;;;16.78;46.58;100060.25;5091004;28;20395;-77
2022/09/29 04:44:30;;;;;;;14.37;9.77;;;;;;;16.40;46.85;100065.56;5088201;28;20077;-76
2022/09/29 04:46:56;;;;;;;14.57;9.63;;;;;;;16.55;47.00;100060.50;5088983;28;20077;-76
2022/09/29 04:49:24;;;;;;;15.60;10.17;;;;;;;16.63;46.87;100061.84;5089132;28;20056;-76
2022/09/29 04:51:50;;;;;;;14.63;9.60;;;;;;;16.81;46.76;100071.59;5088987;28;20040;-76
2022/09/29 04:54:16;;;;;;;16.80;9.73;;;;;;;16.53;47.18;100073.75;5089490;28;20036;-77
2022/09/29 04:56:41;;;;;;;14.20;9.53;;;;;;;16.48;47.11;100077.53;5088392;28;20028;-76
2022/09/29 04:59:08;;;;;;;17.77;10.27;;;;;;;16.14;47.88;100087.84;5084094;28;20054;-77
2022/09/29 05:01:33;;;;;;;15.07;9.20;;;;;;;16.82;46.26;100082.06;5092242;28;20111;-76
2022/09/29 05:03:59;;;;;;;13.10;8.83;;;;;;;16.63;46.47;100079.47;5095319;28;20434;-77
2022/09/29 05:06:24;;;;;;;19.40;9.63;;;;;;;16.17;47.53;100092.13;5075402;28;20032;-76
2022/09/29 05:08:50;;;;;;;24.70;9.33;;;;;;;16.34;47.34;100096.66;5090945;28;20028;-77
2022/09/29 05:11:15;;;;;;;22.43;9.57;;;;;;;16.42;47.47;100095.34;5093260;28;20051;-76
2022/09/29 05:13:41;;;;;;;19.20;8.33;;;;;;;16.69;46.80;100100.28;5094321;28;20034;-76
2022/09/29 05:16:06;;;;;;;16.20;9.17;;;;;;;16.39;47.30;100095.50;5094368;28;20024;-77
2022/09/29 05:18:32;;;;;;;15.70;8.90;;;;;;;16.42;47.52;100108.53;5092732;28;20055;-77
2022/09/29 05:21:05;;;;;;;15.67;8.87;;;;;;;16.97;46.10;100099.00;5093598;28;20024;-76
2022/09/29 05:23:31;;;;;;;12.23;8.57;;;;;;;16.63;46.63;100113.75;5092515;28;20020;-76
2022/09/29 05:26:01;;;;;;;16.43;10.40;;;;;;;16.39;47.60;100113.97;5094688;28;20493;-76
2022/09/29 05:28:26;;;;;;;20.77;10.27;;;;;;;16.49;47.67;100116.19;5092573;28;20051;-77
2022/09/29 05:30:52;;;;;;;16.43;9.07;;;;;;;16.83;46.79;100122.50;5092360;28;20435;-76
2022/09/29 05:33:17;;;;;;;12.43;8.80;;;;;;;16.59;47.10;100114.81;5092037;28;20119;-76
2022/09/29 05:35:43;;;;;;;24.93;9.93;;;;;;;16.53;47.48;100125.69;5093957;28;20059;-77
2022/09/29 05:38:08;;;;;;;23.70;8.47;;;;;;;16.82;46.44;100112.91;5093396;28;20028;-77
2022/09/29 05:40:36;;;;;;;12.87;8.67;;;;;;;16.63;46.42;100113.75;5095107;28;20047;-76
2022/09/29 05:43:01;;;;;;;11.50;8.63;;;;;;;16.50;47.23;100123.16;5092824;28;20016;-77
2022/09/29 05:45:27;;;;;;;22.37;8.80;;;;;;;16.67;46.59;100115.31;5087719;28;20020;-77
2022/09/29 05:47:53;;;;;;;17.63;8.30;;;;;;;16.62;46.76;100128.75;5079053;28;20052;-76
2022/09/29 05:50:19;;;;;;;14.00;8.30;;;;;;;16.37;46.89;100126.34;5091095;28;20042;-76
2022/09/29 05:52:48;;;;;;;13.07;8.03;;;;;;;16.26;47.36;100123.34;5092356;28;20111;-76
2022/09/29 05:55:13;;;;;;;19.70;9.83;;;;;;;16.11;47.43;100131.03;5092259;28;20032;-76
2022/09/29 05:57:39;;;;;;;10.73;7.87;;;;;;;16.24;47.43;100125.22;5104651;28;20488;-76
2022/09/29 06:00:05;;;;;;;9.73;7.03;;;;;;;16.49;46.29;100134.66;5072553;28;20017;-76
2022/09/29 06:02:31;;;;;;;10.53;7.73;;;;;;;16.35;46.58;100136.13;5092522;28;20464;-77
2022/09/29 06:04:56;;;;;;;24.50;9.10;;;;;;;16.39;46.15;100134.19;5092039;28;20055;-77
2022/09/29 06:07:22;;;;;;;13.33;7.20;;;;;;;15.62;47.68;100133.13;5092700;28;20033;-76
2022/09/29 06:09:47;;;;;;;9.63;6.63;;;;;;;15.90;46.79;100132.81;5093108;28;20093;-77
2022/09/29 06:12:13;;;;;;;11.00;6.07;;;;;;;15.53;47.69;100133.50;5092199;28;20492;-77
2022/09/29 06:14:38;;;;;;;14.67;7.63;;;;;;;15.50;47.48;100142.38;5107582;28;20024;-76
2022/09/29 06:17:04;;;;;;;21.03;7.00;;;;;;;15.69;46.97;100139.84;5094182;28;20028;-76
2022/09/29 06:19:29;;;;;;;7.73;6.40;;;;;;;15.94;46.75;100149.34;5106005;27;20032;-77
2022/09/29 06:21:54;;;;;;;27.47;7.77;;;;;;;15.93;47.21;100147.63;5093534;28;20020;-76
2022/09/29 06:24:20;;;;;;;10.43;6.13;;;;;;;15.96;47.39;100149.28;5092351;28;20028;-77
2022/09/29 06:26:46;;;;;;;31.60;7.23;;;;;;;16.21;46.50;100146.41;5092340;28;20067;-76
2022/09/29 06:29:11;;;;;;;27.93;7.43;;;;;;;15.83;47.06;100146.34;5091863;28;20034;-76
2022/09/29 06:31:37;;;;;;;18.03;7.23;;;;;;;16.07;46.73;100155.81;5091416;28;20047;-77
2022/09/29 06:34:04;;;;;;;13.27;7.10;;;;;;;16.02;47.08;100152.53;5091754;28;20028;-76
2022/09/29 06:39:24;;;;;;;12.30;6.50;;;;;;;16.44;46.80;100164.75;5076212;28;20081;-76
2022/09/29 06:41:55;;;;;;;20.07;6.77;;;;;;;16.57;45.74;100169.47;5091034;28;20059;-76
2022/09/29 06:44:23;;;;;;;16.20;6.57;;;;;;;16.86;45.59;100165.47;5087787;28;20031;-77
2022/09/29 06:46:50;;;;;;;12.57;7.57;;;;;;;16.54;45.73;100164.28;5090626;28;20115;-77
2022/09/29 06:49:16;;;;;;;8.83;7.03;;;;;;;16.00;47.67;100169.31;5094157;28;20054;-76
2022/09/29 06:51:42;;;;;;;10.63;7.37;;;;;;;16.38;46.41;100162.34;5092278;28;20062;-77
2022/09/29 06:54:10;;;;;;;9.97;7.57;;;;;;;15.63;48.17;100174.31;5092887;28;20111;-77
2022/09/29 06:56:35;;;;;;;8.97;7.17;;;;;;;16.20;47.21;100176.38;5092211;28;20099;-77
2022/09/29 06:59:01;;;;;;;10.07;8.00;;;;;;;16.26;47.63;100176.94;5092028;28;20548;-77
2022/09/29 07:01:26;;;;;;;10.27;7.97;;;;;;;15.87;48.37;100180.38;5091031;28;20027;-77
2022/09/29 07:03:52;;;;;;;9.23;8.13;;;;;;;16.07;48.62;100182.19;5091387;28;20484;-77
2022/09/29 07:06:17;;;;;;;8.97;7.63;;;;;;;16.43;47.31;100181.47;5095839;28;20059;-77
2022/09/29 07:08:42;;;;;;;11.23;8.97;;;;;;;16.79;46.75;100180.72;5090729;28;20035;-77
2022/09/29 07:11:09;;;;;;;14.17;9.50;;;;;;;15.50;49.07;100191.56;5091811;28;20557;-77
2022/09/29 07:13:35;;;;;;;17.13;9.30;;;;;;;16.08;48.69;100188.28;5090901;28;20036;-77
2022/09/29 07:16:09;;;;;;;16.90;10.47;;;;;;;15.81;49.62;100192.97;5091002;28;20074;-77
2022/09/29 07:18:39;;;;;;;14.07;10.50;;;;;;;16.06;48.86;100185.72;5092532;28;20052;-77
2022/09/29 07:21:09;;;;;;;17.93;10.80;;;;;;;16.55;48.25;100192.41;5091764;28;20361;-77
2022/09/29 07:23:36;;;;;;;14.83;11.40;;;;;;;15.94;49.97;100191.53;5090304;28;20085;-77
2022/09/29 07:26:03;;;;;;;14.53;12.10;;;;;;;16.76;48.34;100186.16;5092124;28;20073;-77
2022/09/29 07:28:29;;;;;;;13.37;10.73;;;;;;;17.10;47.05;100189.00;5092287;28;20042;-77
2022/09/29 07:31:06;;;;;;;17.03;12.47;;;;;;;15.93;50.92;100200.34;5090670;28;20020;-78
2022/09/29 07:33:32;;;;;;;16.93;12.57;;;;;;;16.88;48.93;100199.69;5090481;28;20084;-78
2022/09/29 07:35:59;;;;;;;15.90;13.53;;;;;;;17.56;49.71;100191.25;5088695;28;20031;-77
2022/09/29 07:38:25;;;;;;;15.80;13.00;;;;;;;18.26;46.88;100201.84;5090250;28;20085;-78
2022/09/29 07:40:50;;;;;;;17.00;12.97;;;;;;;18.87;46.70;100196.84;5124495;27;20041;-78
2022/09/29 07:43:16;;;;;;;16.50;12.97;;;;;;;19.38;45.44;100202.00;5088588;28;20488;-77
2022/09/29 07:45:47;;;;;;;15.73;12.93;;;;;;;19.60;45.10;100196.31;5092555;28;20042;-78
2022/09/29 07:48:12;;;;;;;18.27;11.30;;;;;;;19.46;44.15;100205.91;5091768;28;20065;-78
2022/09/29 07:50:37;;;;;;;15.60;11.27;;;;;;;19.70;44.42;100204.59;5087532;28;20127;-78
2022/09/29 07:53:04;;;;;;;17.17;11.87;;;;;;;19.34;45.59;100211.91;5105662;28;20327;-77
2022/09/29 07:55:29;;;;;;;14.17;11.30;;;;;;;17.83;47.18;100214.56;5089621;28;20397;-77
2022/09/29 07:57:55;;;;;;;16.87;12.90;;;;;;;18.43;46.93;100220.31;5088099;28;20035;-77
2022/09/29 08:00:21;;;;;;;14.80;11.40;;;;;;;19.00;45.43;100224.41;5090677;28;20024;-77
2022/09/29 08:02:46;;;;;;;15.90;11.67;;;;;;;19.36;45.35;100225.94;5090656;28;20077;-78
2022/09/29 08:05:12;;;;;;;16.57;12.10;;;;;;;19.28;45.48;100230.81;5091107;28;20022;-77
2022/09/29 08:07:37;;;;;;;14.47;11.83;;;;;;;19.27;46.10;100229.94;5097256;28;20430;-78
2022/09/29 08:10:04;;;;;;;18.47;13.23;;;;;;;19.39;46.39;100231.06;5095180;28;20039;-78
2022/09/29 08:12:29;;;;;;;19.73;13.97;;;;;;;19.47;46.22;100236.78;5078769;28;20036;-77
2022/09/29 08:14:54;;;;;;;19.60;13.33;;;;;;;19.86;45.04;100234.59;5090960;28;20032;-78
2022/09/29 08:17:20;;;;;;;19.10;13.67;;;;;;;19.67;45.71;100248.03;5091621;28;20051;-78
2022/09/29 08:19:45;;;;;;;16.93;12.97;;;;;;;20.19;44.98;100248.63;5090281;28;20085;-78
2022/09/29 08:22:10;;;;;;;17.37;13.77;;;;;;;19.69;45.83;100247.94;5093398;28;20395;-78
2022/09/29 08:24:38;;;;;;;18.20;13.53;;;;;;;19.88;46.13;100253.06;5091218;28;20084;-78
2022/09/29 08:27:05;;;;;;;18.87;13.80;;;;;;;19.90;44.71;100257.34;5089191;28;20090;-78
2022/09/29 08:29:31;;;;;;;18.27;13.77;;;;;;;20.47;44.25;100256.66;5092149;28;20028;-78
2022/09/29 08:31:57;;;;;;;17.83;13.43;;;;;;;20.35;44.55;100262.69;5091726;28;20149;-77
2022/09/29 08:34:22;;;;;;;19.67;14.03;;;;;;;20.67;43.80;100270.50;5092377;28;20062;-78
2022/09/29 08:36:48;;;;;;;17.23;14.13;;;;;;;20.50;44.89;100272.38;5097491;28;20429;-78
2022/09/29 08:39:14;;;;;;;18.23;14.63;;;;;;;20.49;44.80;100275.97;5095193;28;20021;-78
2022/09/29 08:41:58;;;;;;;16.60;14.47;;;;;;;20.61;44.29;100273.53;5105612;27;20029;-78
2022/09/29 08:44:38;;;;;;;16.57;14.07;;;;;;;20.72;44.09;100281.72;5091128;28;20468;-78
2022/09/29 08:47:28;;;;;;;19.27;14.53;;;;;;;20.41;44.58;100288.00;5088450;28;20039;-79
2022/09/29 08:49:57;;;;;;;17.37;14.53;;;;;;;20.53;44.88;100287.28;5083270;28;20051;-78
2022/09/29 08:52:30;;;;;;;21.47;15.87;;;;;;;20.58;44.82;100289.63;5094602;28;20032;-79
2022/09/29 08:55:15;;;;;;;24.90;16.57;;;;;;;20.60;44.87;100293.06;5093610;28;20058;-78
2022/09/29 08:57:42;;;;;;;19.60;15.33;;;;;;;20.58;45.06;100295.81;5073614;28;20036;-78
2022/09/29 09:00:16;;;;;;;19.43;14.77;;;;;;;19.91;46.86;100300.66;5093048;28;20069;-79
2022/09/29 09:02:49;;;;;;;17.93;14.67;;;;;;;20.86;45.15;100294.16;5094361;28;20070;-79
2022/09/29 09:05:44;;;;;;;20.90;15.38;;;;;;;20.40;46.65;100303.09;5094662;28;20032;-79
2022/09/29 09:08:18;;;;;;;21.77;15.40;;;;;;;20.95;45.33;100308.66;5095359;28;20081;-78
2022/09/29 09:11:15;;;;;;;23.17;16.00;;;;;;;20.82;45.52;100303.25;5096942;28;20027;-79
2022/09/29 09:13:58;;;;;;;21.77;14.90;;;;;;;20.67;46.59;100305.84;5090831;28;20061;-78
2022/09/29 09:16:47;;;;;;;17.50;13.30;;;;;;;21.11;45.46;100306.75;5093284;28;20054;-78
2022/09/29 09:19:12;;;;;;;17.20;14.13;;;;;;;21.00;45.66;100311.88;5062858;28;20089;-78
2022/09/29 09:21:41;;;;;;;15.13;12.97;;;;;;;21.26;44.69;100306.75;5091028;28;20032;-79
2022/09/29 09:24:35;;;;;;;19.07;13.43;;;;;;;21.56;44.78;100313.78;5095665;28;20024;-79
2022/09/29 09:27:02;;;;;;;28.77;13.27;;;;;;;21.45;44.44;100312.59;5096097;28;20020;-79
2022/09/29 09:29:36;;;;;;;16.57;11.60;;;;;;;21.34;45.39;100312.44;5089975;28;20035;-78
2022/09/29 09:32:08;;;;;;;15.17;11.80;;;;;;;21.85;45.11;100314.53;5090256;28;20027;-78
2022/09/29 09:34:33;;;;;;;18.52;12.00;;;;;;;21.65;44.99;100314.03;5095313;28;20108;-79
2022/09/29 09:37:12;;;;;;;17.20;11.80;;;;;;;21.76;45.50;100310.69;5093788;28;20466;-78
2022/09/29 09:39:48;;;;;;;12.52;9.98;;;;;;;21.21;46.33;100314.16;5090352;28;20028;-79
2022/09/29 09:42:18;;;;;;;16.08;9.63;;;;;;;21.90;44.52;100311.56;5091221;28;20032;-79
2022/09/29 09:44:54;;;;;;;17.57;9.40;;;;;;;21.63;44.29;100310.59;5090558;28;20032;-79
2022/09/29 09:47:26;;;;;;;10.25;6.88;;;;;;;21.02;43.89;100315.31;5089685;28;20115;-78
2022/09/29 09:49:57;;;;;;;8.45;7.65;;;;;;;22.46;42.74;100308.75;5093779;27;20493;-78
2022/09/29 09:52:35;;;;;;;9.35;7.43;;;;;;;22.58;41.63;100312.38;5091479;27;20032;-78
2022/09/29 09:55:09;;;;;;;13.38;8.07;;;;;;;21.46;44.35;100316.09;5088445;28;20039;-78
2022/09/29 09:57:42;;;;;;;10.90;7.97;;;;;;;21.66;43.83;100326.34;5106166;27;20043;-78
2022/09/29 10:00:08;;;;;;;;;;;;;;;22.68;42.62;100318.75;5087785;28;20097;-79
2022/09/29 10:02:35;;;;;;;11.65;8.75;;;;;;;22.72;42.55;100319.41;5093445;28;19916;-79
2022/09/29 10:05:01;;;;;;;10.25;7.43;;;;;;;22.79;42.13;100318.91;5094949;28;20097;-79
2022/09/29 10:07:29;;;;;;;8.45;6.85;;;;;;;22.83;42.86;100315.06;5102112;27;20476;-78
2022/09/29 10:10:01;;;;;;;9.15;7.32;;;;;;;23.15;41.43;100317.28;5108114;28;20038;-77
2022/09/29 10:12:26;;;;;;;8.60;6.80;;;;;;;22.50;41.31;100316.44;5093523;28;20055;-77
2022/09/29 10:15:11;;;;;;;9.60;6.93;;;;;;;22.81;41.67;100319.63;5091964;28;20052;-78
2022/09/29 10:17:44;;;;;;;9.35;5.93;;;;;;;22.36;42.13;100322.66;5092770;28;20028;-77
2022/09/29 10:20:11;;;;;;;7.07;5.10;;;;;;;21.45;42.38;100325.06;5092474;28;20047;-76
2022/09/29 10:22:37;;;;;;;7.45;4.20;;;;;;;22.49;40.97;100314.72;5092291;28;20146;-76
2022/09/29 10:25:18;;;;;;;8.70;5.50;;;;;;;22.95;40.95;100317.81;5090620;28;20036;-76
2022/09/29 10:27:47;;;;;;;7.93;6.18;;;;;;;23.50;39.82;100315.72;5090478;28;20089;-76
2022/09/29 10:30:20;;;;;;;9.30;5.70;;;;;;;22.44;40.36;100330.16;5104842;28;20029;-76
2022/09/29 10:32:46;;;;;;;;;;;;;;;22.42;40.03;100318.75;5089425;28;20028;-76
2022/09/29 10:35:27;;;;;;;6.90;5.10;;;;;;;22.10;40.86;100324.38;5092262;28;20295;-76
2022/09/29 10:38:01;;;;;;;7.28;5.80;;;;;;;23.04;40.12;100325.19;5092551;28;20135;-76
2022/09/29 10:40:27;;;;;;;7.80;5.25;;;;;;;23.01;40.26;100320.03;5091752;28;20024;-75
2022/09/29 10:42:52;;;;;;;6.97;5.30;;;;;;;23.02;39.42;100333.25;5089883;28;20391;-76
2022/09/29 10:45:22;;;;;;;6.22;5.55;;;;;;;23.75;39.05;100330.78;5096082;28;20036;-75
2022/09/29 10:48:11;;;;;;;7.22;4.20;;;;;;;23.36;38.25;100340.72;5091256;28;20052;-76
2022/09/29 10:50:50;;;;;;;7.25;4.95;;;;;;;22.70;39.01;100338.16;5091676;28;20078;-75
2022/09/29 10:53:27;;;;;;;7.03;4.90;;;;;;;22.71;39.59;100334.56;5089532;28;20127;-75
2022/09/29 10:55:55;;;;;;;8.80;5.07;;;;;;;23.47;40.21;100332.78;5101254;27;20039;-75
2022/09/29 10:58:26;;;;;;;8.80;4.97;;;;;;;23.07;39.53;100330.28;5088853;28;20028;-76
2022/09/29 11:01:06;;;;;;;5.78;4.03;;;;;;;23.94;37.78;100334.81;5091456;28;20028;-75
2022/09/29 11:03:33;;;;;;;3.72;2.75;;;;;;;24.04;36.76;100335.81;5090790;28;20039;-76
2022/09/29 11:06:08;;;;;;;4.35;2.65;;;;;;;23.95;35.84;100341.84;5087938;28;20032;-76
2022/09/29 11:08:53;;;;;;;3.30;2.45;;;;;;;23.91;35.66;100340.38;5111876;28;20088;-76
2022/09/29 11:11:31;;;;;;;4.53;2.50;;;;;;;24.41;35.90;100333.03;5112820;28;20062;-76
2022/09/29 11:13:58;;;;;;;3.15;2.65;;;;;;;23.49;36.28;100336.22;5112293;28;20088;-76
2022/09/29 11:16:37;;;;;;;2.90;2.53;;;;;;;24.21;35.78;100348.75;5111519;28;20543;-76
2022/09/29 11:19:02;;;;;;;5.72;2.70;;;;;;;24.03;34.98;100350.13;5112320;28;20032;-76
2022/09/29 11:21:59;;;;;;;4.38;3.03;;;;;;;23.81;36.24;100358.81;5111335;28;20498;-76
2022/09/29 11:24:49;;;;;;;4.18;3.22;;;;;;;24.13;36.44;100358.31;5112177;28;20027;-76
2022/09/29 11:27:36;;;;;;;5.53;3.15;;;;;;;22.98;37.49;100349.56;5112102;28;20031;-76
2022/09/29 11:30:19;;;;;;;3.72;3.13;;;;;;;24.15;35.72;100351.91;5111299;28;20023;-75
2022/09/29 11:33:11;;;;;;;5.05;3.97;;;;;;;24.83;34.88;100344.09;5111994;28;20118;-75